Time;durP1;ratioP1;P1;durP2;ratioP2;P2;SDS_P1;SDS_P2;PMS_P1;PMS_P2;Temp;Humidity;BMP_temperature;BMP_pressure;BME280_temperature;BME280_humidity;BME280_pressure;Samples;Min_cycle;Max_cycle;Signal;HPM_P1;HPM_P2
2023/06/24 00:01:56;;;;;;;10.53;9.43;;;16.00;99.90;;;;;;5053864;28;20467;-64
2023/06/24 00:04:23;;;;;;;9.93;8.80;;;16.00;99.90;;;;;;5053827;28;20826;-62
2023/06/24 00:06:52;;;;;;;10.27;9.00;;;15.90;99.90;;;;;;5054606;28;20444;-63
2023/06/24 00:09:19;;;;;;;13.13;9.40;;;15.90;99.90;;;;;;5053741;28;20452;-62
2023/06/24 00:11:47;;;;;;;14.23;10.00;;;15.80;99.90;;;;;;5053190;28;20460;-63
2023/06/24 00:14:15;;;;;;;11.37;9.07;;;15.80;99.90;;;;;;5053181;28;20455;-64
2023/06/24 00:16:41;;;;;;;11.60;9.67;;;15.70;99.90;;;;;;5052591;28;20472;-63
2023/06/24 00:19:09;;;;;;;13.13;9.30;;;15.60;99.90;;;;;;5052803;28;20531;-63
2023/06/24 00:21:37;;;;;;;8.63;7.80;;;15.60;99.90;;;;;;5053015;28;20847;-64
2023/06/24 00:24:05;;;;;;;13.57;9.33;;;15.50;99.90;;;;;;5052571;28;20938;-64
2023/06/24 00:26:32;;;;;;;8.57;7.50;;;15.50;99.90;;;;;;5053180;28;20478;-62
2023/06/24 00:28:59;;;;;;;10.67;8.00;;;15.40;99.90;;;;;;5057284;28;20451;-62
2023/06/24 00:31:26;;;;;;;8.90;8.00;;;15.40;99.90;;;;;;5056970;28;20464;-63
2023/06/24 00:33:53;;;;;;;11.37;7.50;;;15.30;99.90;;;;;;5057080;28;20458;-63
2023/06/24 00:36:21;;;;;;;10.93;8.50;;;15.20;99.90;;;;;;5056804;28;20479;-64
2023/06/24 00:38:49;;;;;;;9.80;8.33;;;15.10;99.90;;;;;;5056857;28;20448;-62
2023/06/24 00:41:18;;;;;;;9.93;8.17;;;15.10;99.90;;;;;;5056760;28;20440;-62
2023/06/24 00:43:45;;;;;;;10.37;8.47;;;15.00;99.90;;;;;;5056744;28;20444;-62
2023/06/24 00:46:15;;;;;;;9.33;7.50;;;15.00;99.90;;;;;;5056818;28;20446;-62
2023/06/24 00:48:42;;;;;;;12.37;8.27;;;14.90;99.90;;;;;;5057406;28;20451;-62
2023/06/24 00:51:08;;;;;;;9.73;8.50;;;14.90;99.90;;;;;;5056776;28;20805;-62
2023/06/24 00:53:37;;;;;;;8.97;8.07;;;14.80;99.90;;;;;;5056775;28;20446;-64
2023/06/24 00:56:04;;;;;;;8.40;7.47;;;14.80;99.90;;;;;;5056737;28;20444;-63
2023/06/24 00:58:36;;;;;;;9.20;8.20;;;14.70;99.90;;;;;;5056402;28;20976;-63
2023/06/24 01:01:05;;;;;;;8.97;7.50;;;14.70;99.90;;;;;;5056569;28;20436;-62
2023/06/24 01:03:32;;;;;;;8.90;7.50;;;14.60;99.90;;;;;;5055964;28;20440;-62
2023/06/24 01:05:59;;;;;;;10.63;7.27;;;14.60;99.90;;;;;;5055880;28;20450;-62
2023/06/24 01:08:26;;;;;;;9.57;8.27;;;14.50;99.90;;;;;;5056131;28;20465;-63
2023/06/24 01:10:54;;;;;;;11.20;7.73;;;14.50;99.90;;;;;;5056421;28;20812;-63
2023/06/24 01:13:22;;;;;;;8.57;7.63;;;14.50;99.90;;;;;;5056207;28;20464;-62
2023/06/24 01:15:49;;;;;;;7.97;7.20;;;14.50;99.90;;;;;;5055915;28;20448;-62
2023/06/24 01:18:25;;;;;;;8.70;7.80;;;14.40;99.90;;;;;;5056201;28;20491;-62
2023/06/24 01:20:58;;;;;;;9.53;7.20;;;14.40;99.90;;;;;;5056123;28;20432;-63
2023/06/24 01:23:49;;;;;;;8.77;7.27;;;14.30;99.90;;;;;;5055593;28;20472;-62
2023/06/24 01:26:30;;;;;;;11.27;7.17;;;14.30;99.90;;;;;;5056010;28;20428;-62
2023/06/24 01:29:22;;;;;;;8.60;7.80;;;14.30;99.90;;;;;;5056374;28;20444;-64
2023/06/24 01:31:54;;;;;;;7.97;7.27;;;14.30;99.90;;;;;;5055892;28;20522;-63
2023/06/24 01:34:26;;;;;;;8.27;6.90;;;14.20;99.90;;;;;;5055497;28;20431;-64
2023/06/24 01:37:01;;;;;;;11.47;7.20;;;14.20;99.90;;;;;;5055973;28;20870;-64
2023/06/24 01:39:32;;;;;;;11.80;7.27;;;14.20;99.90;;;;;;5054999;28;20482;-63
2023/06/24 01:42:07;;;;;;;9.50;6.97;;;14.20;99.90;;;;;;5055396;28;20985;-63
2023/06/24 01:44:35;;;;;;;8.63;7.73;;;14.20;99.90;;;;;;5055283;28;20914;-63
2023/06/24 01:47:08;;;;;;;8.60;7.70;;;14.10;99.90;;;;;;5055179;28;20933;-63
2023/06/24 01:49:41;;;;;;;8.63;7.37;;;14.10;99.90;;;;;;5055706;28;20463;-63
2023/06/24 01:52:09;;;;;;;8.37;7.17;;;14.10;99.90;;;;;;5055534;28;20456;-64
2023/06/24 01:54:37;;;;;;;11.27;7.47;;;14.00;99.90;;;;;;5055315;28;20452;-63
2023/06/24 01:57:06;;;;;;;8.40;7.10;;;14.00;99.90;;;;;;5055376;28;20507;-64
2023/06/24 01:59:34;;;;;;;10.40;7.83;;;13.90;99.90;;;;;;5054964;28;21006;-63
2023/06/24 02:02:03;;;;;;;9.13;7.90;;;13.90;99.90;;;;;;5054825;28;20837;-63
2023/06/24 02:04:31;;;;;;;9.30;7.27;;;13.90;99.90;;;;;;5055270;28;20467;-63
2023/06/24 02:07:00;;;;;;;10.57;7.77;;;13.80;99.90;;;;;;5055157;28;20451;-63
2023/06/24 02:09:28;;;;;;;11.13;8.47;;;13.80;99.90;;;;;;5054791;28;21106;-64
2023/06/24 02:11:56;;;;;;;8.03;6.90;;;13.80;99.90;;;;;;5054866;28;20517;-63
2023/06/24 02:14:24;;;;;;;10.30;7.73;;;13.80;99.90;;;;;;5054877;28;20440;-63
2023/06/24 02:16:57;;;;;;;10.27;8.17;;;13.70;99.90;;;;;;5054788;28;21076;-63
2023/06/24 02:19:28;;;;;;;23.57;8.47;;;13.70;99.90;;;;;;5055184;28;20440;-63
2023/06/24 02:21:56;;;;;;;9.10;7.60;;;13.70;99.90;;;;;;5054513;28;20472;-63
2023/06/24 02:24:24;;;;;;;12.33;8.50;;;13.70;99.90;;;;;;5054971;28;20445;-63
2023/06/24 02:26:52;;;;;;;12.03;8.60;;;13.60;99.90;;;;;;5054822;28;20447;-63
2023/06/24 02:29:19;;;;;;;9.43;8.07;;;13.60;99.90;;;;;;5054735;28;20539;-63
2023/06/24 02:31:46;;;;;;;11.93;8.33;;;13.60;99.90;;;;;;5054646;28;20460;-64
2023/06/24 02:34:13;;;;;;;9.53;8.27;;;13.60;99.90;;;;;;5054627;28;20534;-64
2023/06/24 02:36:41;;;;;;;9.10;8.17;;;13.50;99.90;;;;;;5054420;28;20446;-63
2023/06/24 02:39:08;;;;;;;10.13;7.20;;;13.60;99.90;;;;;;5054242;28;20444;-64
2023/06/24 02:41:36;;;;;;;10.13;8.53;;;13.50;99.90;;;;;;5054122;28;21000;-63
2023/06/24 02:44:02;;;;;;;8.43;7.27;;;13.50;99.90;;;;;;5054301;28;20444;-63
2023/06/24 02:46:31;;;;;;;8.87;7.93;;;13.50;99.90;;;;;;5054338;28;20440;-64
2023/06/24 02:48:59;;;;;;;9.27;7.27;;;13.50;99.90;;;;;;5054482;28;20812;-63
2023/06/24 02:51:27;;;;;;;11.20;7.87;;;13.40;99.90;;;;;;5059861;28;20463;-64
2023/06/24 02:53:57;;;;;;;8.60;7.60;;;13.40;99.90;;;;;;5064595;28;20475;-63
2023/06/24 02:56:25;;;;;;;9.57;8.33;;;13.40;99.90;;;;;;5063954;28;20433;-63
2023/06/24 02:58:54;;;;;;;8.80;8.00;;;13.40;99.90;;;;;;5061681;28;20476;-63
2023/06/24 03:01:24;;;;;;;8.83;7.93;;;13.40;99.90;;;;;;5061410;28;20440;-63
2023/06/24 03:03:54;;;;;;;11.77;8.10;;;13.30;99.90;;;;;;5062443;28;20543;-62
2023/06/24 03:06:22;;;;;;;11.40;8.37;;;13.30;99.90;;;;;;5062004;28;21025;-64
2023/06/24 03:08:49;;;;;;;10.00;8.43;;;13.30;99.90;;;;;;5060899;28;20982;-63
2023/06/24 03:11:17;;;;;;;9.47;8.47;;;13.40;99.90;;;;;;5054677;28;20471;-63
2023/06/24 03:13:44;;;;;;;9.30;8.33;;;13.40;99.90;;;;;;5054531;28;20968;-64
2023/06/24 03:16:12;;;;;;;9.13;8.17;;;13.40;99.90;;;;;;5054095;28;20447;-62
2023/06/24 03:18:41;;;;;;;9.73;8.50;;;13.40;99.90;;;;;;5053767;28;20472;-62
2023/06/24 03:21:08;;;;;;;9.80;7.77;;;13.40;99.90;;;;;;5053902;28;20543;-63
2023/06/24 03:23:35;;;;;;;10.60;8.40;;;13.40;99.90;;;;;;5060881;22;20484;-61
2023/06/24 03:26:02;;;;;;;9.77;8.77;;;13.40;99.90;;;;;;5034395;28;20441;-60
2023/06/24 03:28:31;;;;;;;11.30;7.93;;;13.50;99.90;;;;;;5034061;28;20436;-60
2023/06/24 03:30:58;;;;;;;9.43;8.43;;;13.50;99.90;;;;;;5033985;28;20455;-59
2023/06/24 03:33:26;;;;;;;10.17;8.87;;;13.50;99.90;;;;;;5048491;28;20982;-60
2023/06/24 03:35:53;;;;;;;12.23;8.27;;;13.50;99.90;;;;;;5053996;28;20448;-60
2023/06/24 03:38:20;;;;;;;11.37;8.40;;;13.60;99.90;;;;;;5053733;28;20841;-61
2023/06/24 03:40:47;;;;;;;9.17;7.87;;;13.60;99.90;;;;;;5053972;28;20440;-62
2023/06/24 03:43:13;;;;;;;9.07;8.00;;;13.70;99.90;;;;;;5053295;28;20978;-61
2023/06/24 03:45:41;;;;;;;7.93;7.00;;;13.70;99.90;;;;;;5055022;28;20546;-60
2023/06/24 03:48:08;;;;;;;9.63;7.97;;;13.80;99.90;;;;;;5053834;28;20436;-60
2023/06/24 03:50:35;;;;;;;7.90;6.97;;;13.80;99.90;;;;;;5057895;28;20452;-61
2023/06/24 03:53:02;;;;;;;9.97;7.53;;;13.90;99.90;;;;;;5064209;28;20460;-61
2023/06/24 03:55:29;;;;;;;10.40;7.60;;;14.20;99.90;;;;;;5053381;28;20440;-62
2023/06/24 03:57:56;;;;;;;8.57;7.30;;;14.70;99.90;;;;;;5053242;28;20476;-61
2023/06/24 04:00:23;;;;;;;7.47;6.60;;;15.30;99.90;;;;;;5053874;28;20447;-61
2023/06/24 04:02:52;;;;;;;6.10;5.40;;;15.90;99.90;;;;;;5052815;28;20464;-61
2023/06/24 04:05:18;;;;;;;9.93;5.50;;;16.50;99.90;;;;;;5053127;28;20444;-62
2023/06/24 04:07:46;;;;;;;7.97;6.23;;;16.90;99.90;;;;;;5052989;28;20440;-61
2023/06/24 04:11:52;;;;;;;5.37;4.87;;;17.50;99.90;;;;;;5091166;27;20608;-61
2023/06/24 04:14:19;;;;;;;7.90;5.33;;;17.80;99.90;;;;;;5090896;28;20465;-62
2023/06/24 04:16:46;;;;;;;7.33;5.70;;;18.20;99.90;;;;;;5090522;28;20962;-61
2023/06/24 04:19:12;;;;;;;6.53;5.53;;;18.50;99.90;;;;;;5090357;28;20936;-62
2023/06/24 04:21:39;;;;;;;9.63;5.57;;;18.90;99.90;;;;;;5090274;28;21001;-63
2023/06/24 04:24:06;;;;;;;5.77;5.17;;;19.20;99.90;;;;;;5090634;28;20443;-62
2023/06/24 04:26:33;;;;;;;7.33;4.87;;;19.40;99.90;;;;;;5090200;28;20942;-61
2023/06/24 04:29:01;;;;;;;7.40;5.70;;;19.70;99.90;;;;;;5090325;28;20473;-63
2023/06/24 04:31:28;;;;;;;6.50;5.23;;;19.90;99.90;;;;;;5090073;28;20472;-63
2023/06/24 04:33:55;;;;;;;6.07;5.47;;;20.10;99.90;;;;;;5090042;28;20986;-63
2023/06/24 04:36:22;;;;;;;5.33;4.83;;;20.20;99.90;;;;;;5090104;28;20454;-60
2023/06/24 04:38:49;;;;;;;8.43;5.70;;;20.30;99.90;;;;;;5090311;28;20992;-63
2023/06/24 04:41:15;;;;;;;7.87;5.80;;;20.40;99.90;;;;;;5089906;28;20810;-62
2023/06/24 04:43:42;;;;;;;6.73;5.43;;;20.50;99.90;;;;;;5090146;28;20466;-62
2023/06/24 04:46:10;;;;;;;8.67;5.43;;;20.60;99.90;;;;;;5090629;28;20455;-63
2023/06/24 04:48:37;;;;;;;6.47;5.50;;;20.80;99.80;;;;;;5089936;28;20801;-62
2023/06/24 04:51:04;;;;;;;6.07;5.47;;;21.00;98.80;;;;;;5089663;28;20483;-62
2023/06/24 04:53:31;;;;;;;6.17;5.57;;;21.00;97.40;;;;;;5089767;28;21004;-63
2023/06/24 04:55:57;;;;;;;5.90;5.30;;;21.00;96.90;;;;;;5090056;28;20466;-62
2023/06/24 04:58:24;;;;;;;6.27;5.67;;;21.10;96.10;;;;;;5090025;28;20456;-62
2023/06/24 05:00:51;;;;;;;5.97;5.20;;;21.30;94.90;;;;;;5089222;28;20821;-62
2023/06/24 05:03:19;;;;;;;7.17;5.43;;;21.60;94.10;;;;;;5089616;28;20465;-61
2023/06/24 05:05:46;;;;;;;6.60;6.00;;;21.80;92.60;;;;;;5089634;28;20449;-62
2023/06/24 05:08:12;;;;;;;8.37;6.10;;;22.00;91.20;;;;;;5089872;28;20443;-62
2023/06/24 05:10:39;;;;;;;8.23;6.47;;;22.10;90.00;;;;;;5089531;28;20586;-62
2023/06/24 05:13:06;;;;;;;8.13;6.53;;;22.20;87.80;;;;;;5090307;28;20465;-63
2023/06/24 05:15:33;;;;;;;7.40;5.90;;;22.10;85.80;;;;;;5089483;28;20935;-62
2023/06/24 05:17:59;;;;;;;6.83;6.20;;;22.00;85.80;;;;;;5090014;28;20444;-63
2023/06/24 05:20:27;;;;;;;6.03;5.43;;;21.90;85.70;;;;;;5089333;28;20808;-63
2023/06/24 05:22:55;;;;;;;7.27;5.90;;;22.00;85.10;;;;;;5077826;28;20471;-62
2023/06/24 05:25:22;;;;;;;7.50;6.57;;;22.00;84.00;;;;;;5076138;28;20444;-63
2023/06/24 05:27:49;;;;;;;6.70;6.10;;;22.00;83.50;;;;;;5075905;28;20537;-62
2023/06/24 05:30:15;;;;;;;5.67;5.17;;;22.20;83.40;;;;;;5075914;28;20473;-62
2023/06/24 05:32:42;;;;;;;6.20;5.70;;;22.30;81.90;;;;;;5075860;28;20477;-62
2023/06/24 05:35:09;;;;;;;9.17;6.50;;;22.30;81.20;;;;;;5075493;28;20861;-61
2023/06/24 05:37:38;;;;;;;7.20;6.50;;;22.30;80.70;;;;;;5075489;28;20818;-64
2023/06/24 05:40:06;;;;;;;6.80;6.13;;;22.20;80.70;;;;;;5075324;28;21007;-63
2023/06/24 05:42:33;;;;;;;6.60;6.00;;;22.10;80.70;;;;;;5075387;28;20477;-62
2023/06/24 05:45:00;;;;;;;7.33;5.17;;;22.10;80.50;;;;;;5075521;28;20456;-62
2023/06/24 05:47:27;;;;;;;7.87;6.10;;;22.00;80.60;;;;;;5076080;28;20453;-62
2023/06/24 05:49:53;;;;;;;7.87;6.87;;;22.10;81.10;;;;;;5075342;28;20457;-61
2023/06/24 05:52:20;;;;;;;8.70;7.13;;;22.10;81.00;;;;;;5075458;28;20461;-60
2023/06/24 05:54:48;;;;;;;7.53;6.73;;;22.10;81.20;;;;;;5084243;28;20513;-62
2023/06/24 05:57:15;;;;;;;8.53;7.50;;;22.20;81.00;;;;;;5080418;28;20445;-63
2023/06/24 05:59:42;;;;;;;7.37;6.73;;;22.30;80.70;;;;;;5076357;28;20450;-62
2023/06/24 06:02:08;;;;;;;13.80;10.57;;;22.30;80.10;;;;;;5075219;28;20469;-62
2023/06/24 06:04:35;;;;;;;9.00;8.10;;;22.30;79.50;;;;;;5075586;28;20616;-63
2023/06/24 06:07:02;;;;;;;13.13;8.53;;;22.20;79.70;;;;;;5075652;28;20449;-64
2023/06/24 06:09:29;;;;;;;8.57;7.00;;;22.10;79.60;;;;;;5075957;28;20536;-63
2023/06/24 06:11:57;;;;;;;12.37;6.80;;;22.00;80.30;;;;;;5079553;28;20484;-61
2023/06/24 06:14:23;;;;;;;7.73;6.60;;;22.00;80.20;;;;;;5077388;28;20452;-62
2023/06/24 06:16:50;;;;;;;7.10;6.40;;;22.10;80.20;;;;;;5075856;28;20454;-62
2023/06/24 06:19:17;;;;;;;6.77;4.97;;;22.10;80.00;;;;;;5075265;28;20446;-62
2023/06/24 06:21:44;;;;;;;6.53;5.50;;;22.20;80.20;;;;;;5075243;28;20446;-61
2023/06/24 06:24:11;;;;;;;7.10;5.80;;;22.20;80.10;;;;;;5075278;28;20449;-62
2023/06/24 06:26:43;;;;;;;7.93;6.53;;;22.20;79.30;;;;;;5074869;28;20452;-62
2023/06/24 06:29:11;;;;;;;7.60;6.60;;;22.10;79.10;;;;;;5074539;28;20425;-62
2023/06/24 06:31:38;;;;;;;6.43;5.60;;;21.90;78.90;;;;;;5074080;28;21005;-63
2023/06/24 06:34:04;;;;;;;7.50;6.33;;;21.60;80.10;;;;;;5073254;28;20935;-63
2023/06/24 06:36:32;;;;;;;9.43;6.30;;;21.50;81.20;;;;;;5074709;28;20447;-63
2023/06/24 06:38:58;;;;;;;7.00;6.20;;;21.40;82.00;;;;;;5074905;28;20453;-63
2023/06/24 06:41:25;;;;;;;5.80;5.13;;;21.40;82.70;;;;;;5074734;28;20491;-60
2023/06/24 06:43:52;;;;;;;6.10;5.23;;;21.50;82.50;;;;;;5074594;28;20470;-62
2023/06/24 06:46:21;;;;;;;6.23;5.50;;;21.60;81.90;;;;;;5074216;28;20941;-62
2023/06/24 06:48:48;;;;;;;5.97;5.37;;;21.60;81.50;;;;;;5074405;28;20444;-63
2023/06/24 06:51:14;;;;;;;5.57;5.07;;;21.60;81.40;;;;;;5074416;28;20483;-61
2023/06/24 06:53:41;;;;;;;5.60;5.03;;;21.60;81.00;;;;;;5074320;28;20493;-61
2023/06/24 06:56:08;;;;;;;7.50;5.97;;;21.60;80.40;;;;;;5073802;28;20948;-62
2023/06/24 06:58:35;;;;;;;7.80;6.20;;;21.30;80.00;;;;;;5073669;28;20936;-61
2023/06/24 07:01:04;;;;;;;6.07;5.37;;;21.20;81.10;;;;;;5073938;28;20446;-62
2023/06/24 07:03:33;;;;;;;7.27;5.70;;;21.10;81.80;;;;;;5073988;28;20481;-62
2023/06/24 07:05:59;;;;;;;9.27;5.80;;;21.00;82.20;;;;;;5073401;28;20918;-61
2023/06/24 07:08:26;;;;;;;6.20;5.50;;;21.00;82.70;;;;;;5073919;28;20458;-63
2023/06/24 07:10:53;;;;;;;6.57;4.90;;;21.10;82.80;;;;;;5073607;28;20498;-63
2023/06/24 07:13:20;;;;;;;5.23;4.50;;;21.30;82.30;;;;;;5073804;28;20472;-64
2023/06/24 07:15:47;;;;;;;8.17;5.97;;;21.30;81.20;;;;;;5073506;28;20448;-62
2023/06/24 07:18:13;;;;;;;6.93;4.73;;;21.40;81.50;;;;;;5073819;28;20533;-63
2023/06/24 07:20:42;;;;;;;6.13;5.53;;;21.50;81.10;;;;;;5073927;28;20461;-61
2023/06/24 07:23:10;;;;;;;8.03;6.17;;;21.70;79.60;;;;;;5073670;28;20464;-62
2023/06/24 07:25:36;;;;;;;5.50;4.23;;;21.90;78.40;;;;;;5073408;28;20954;-62
2023/06/24 07:28:03;;;;;;;5.20;4.37;;;22.00;77.20;;;;;;5073770;28;20445;-63
2023/06/24 07:30:30;;;;;;;7.13;4.80;;;21.90;75.70;;;;;;5073837;28;20450;-61
2023/06/24 07:32:57;;;;;;;4.60;4.20;;;21.80;75.40;;;;;;5073387;28;20465;-62
2023/06/24 07:35:24;;;;;;;6.63;4.87;;;21.70;74.50;;;;;;5073746;28;20446;-64
2023/06/24 07:37:52;;;;;;;6.20;5.60;;;21.70;74.30;;;;;;5073240;28;20462;-62
2023/06/24 07:40:19;;;;;;;5.23;4.57;;;21.70;74.20;;;;;;5073430;28;20457;-62
2023/06/24 07:42:45;;;;;;;6.10;4.40;;;21.70;73.70;;;;;;5073462;28;20473;-62
2023/06/24 07:45:12;;;;;;;5.53;4.60;;;21.80;73.40;;;;;;5073744;28;20447;-61
2023/06/24 07:47:39;;;;;;;9.13;5.00;;;22.00;72.80;;;;;;5074078;28;20454;-61
2023/06/24 07:50:06;;;;;;;6.30;4.83;;;22.10;72.10;;;;;;5073516;28;20939;-61
2023/06/24 07:52:33;;;;;;;6.17;4.60;;;22.10;71.30;;;;;;5073968;28;20483;-62
2023/06/24 07:55:01;;;;;;;4.90;4.23;;;22.00;70.60;;;;;;5073593;28;20449;-62
2023/06/24 07:57:28;;;;;;;4.93;4.27;;;22.00;70.70;;;;;;5080195;28;20497;-63
2023/06/24 07:59:55;;;;;;;5.73;4.20;;;22.00;69.90;;;;;;5079118;28;20451;-62
2023/06/24 08:02:23;;;;;;;4.97;4.57;;;22.00;69.50;;;;;;5073478;28;20485;-62
2023/06/24 08:04:50;;;;;;;4.97;4.30;;;22.00;69.30;;;;;;5073500;28;20446;-62
2023/06/24 08:07:17;;;;;;;5.23;4.27;;;22.00;69.00;;;;;;5073321;28;20446;-62
2023/06/24 08:09:44;;;;;;;4.60;4.20;;;22.10;69.00;;;;;;5072834;28;20459;-62
2023/06/24 08:12:12;;;;;;;4.20;3.90;;;22.20;68.10;;;;;;5072660;28;20485;-62
2023/06/24 08:14:39;;;;;;;4.40;4.00;;;22.30;67.90;;;;;;5072973;28;20460;-61
2023/06/24 08:17:06;;;;;;;5.13;4.63;;;22.30;67.10;;;;;;5073155;28;20453;-62
2023/06/24 08:19:33;;;;;;;4.40;4.00;;;22.40;66.20;;;;;;5072935;28;20450;-64
2023/06/24 08:22:00;;;;;;;3.93;3.53;;;22.50;65.50;;;;;;5072876;28;20469;-65
2023/06/24 08:24:26;;;;;;;5.17;3.60;;;22.60;65.10;;;;;;5073203;28;20478;-62
2023/06/24 08:26:53;;;;;;;4.53;3.50;;;22.60;64.70;;;;;;5072945;28;20443;-62
2023/06/24 08:29:22;;;;;;;4.20;3.30;;;22.60;61.80;;;;;;5072608;28;20439;-63
2023/06/24 08:31:48;;;;;;;4.03;3.63;;;22.50;60.60;;;;;;5072686;28;20488;-62
2023/06/24 08:34:15;;;;;;;4.13;3.70;;;22.60;60.20;;;;;;5072820;28;20479;-63
2023/06/24 08:36:42;;;;;;;4.03;3.73;;;22.70;60.00;;;;;;5072538;28;20453;-63
2023/06/24 08:39:09;;;;;;;4.20;3.80;;;23.00;59.90;;;;;;5072786;28;20448;-62
2023/06/24 08:41:36;;;;;;;4.70;4.03;;;23.30;59.20;;;;;;5073032;28;20447;-64
2023/06/24 08:44:03;;;;;;;6.20;3.60;;;23.50;58.50;;;;;;5072505;28;20988;-64
2023/06/24 08:46:33;;;;;;;4.73;4.10;;;23.40;58.40;;;;;;5072950;28;20442;-62
2023/06/24 08:49:06;;;;;;;4.33;3.93;;;23.40;58.70;;;;;;5072795;28;20435;-63
2023/06/24 08:51:38;;;;;;;3.77;3.47;;;23.50;58.80;;;;;;5072786;28;20471;-64
2023/06/24 08:54:07;;;;;;;4.67;4.27;;;23.50;58.90;;;;;;5072843;28;20436;-63
2023/06/24 08:56:34;;;;;;;6.10;4.07;;;23.60;58.60;;;;;;5073017;28;20449;-64
2023/06/24 08:59:02;;;;;;;5.53;3.77;;;23.50;58.70;;;;;;5076496;28;20792;-62
2023/06/24 09:01:30;;;;;;;5.33;3.27;;;23.60;58.90;;;;;;5075967;28;20436;-63
2023/06/24 09:03:58;;;;;;;5.33;3.87;;;23.60;58.70;;;;;;5076301;28;20467;-61
2023/06/24 09:06:25;;;;;;;5.23;3.90;;;23.70;58.70;;;;;;5076762;28;20443;-63
2023/06/24 09:08:55;;;;;;;4.50;4.07;;;23.80;58.50;;;;;;5076205;28;20456;-63
2023/06/24 09:11:24;;;;;;;5.80;4.50;;;23.80;58.50;;;;;;5075764;28;20984;-62
2023/06/24 09:13:56;;;;;;;4.70;4.17;;;23.80;59.10;;;;;;5076096;28;20513;-62
2023/06/24 09:16:23;;;;;;;5.13;4.10;;;23.80;58.30;;;;;;5076052;28;20835;-63
2023/06/24 09:18:50;;;;;;;5.03;4.17;;;23.80;58.20;;;;;;5076044;28;20840;-62
2023/06/24 09:21:25;;;;;;;4.23;3.73;;;23.90;58.40;;;;;;5075792;28;20852;-63
2023/06/24 09:23:54;;;;;;;3.80;3.23;;;24.10;58.50;;;;;;5076697;28;20463;-62
2023/06/24 09:26:20;;;;;;;4.80;3.27;;;24.30;57.80;;;;;;5076114;28;20445;-63
2023/06/24 09:28:49;;;;;;;3.77;3.37;;;24.30;57.10;;;;;;5075839;28;20450;-63
2023/06/24 09:31:16;;;;;;;4.50;3.60;;;24.30;56.80;;;;;;5075832;28;20445;-64
2023/06/24 09:33:43;;;;;;;3.50;3.20;;;24.40;56.70;;;;;;5076417;28;20467;-62
2023/06/24 09:36:12;;;;;;;6.73;3.90;;;24.50;56.40;;;;;;5075820;28;20457;-63
2023/06/24 09:38:44;;;;;;;3.33;3.03;;;24.60;56.20;;;;;;5075608;28;20917;-62
2023/06/24 09:41:10;;;;;;;3.60;3.30;;;24.70;56.00;;;;;;5075789;28;20425;-63
2023/06/24 09:43:39;;;;;;;8.10;4.20;;;24.80;55.60;;;;;;5075489;28;20468;-64
2023/06/24 09:46:07;;;;;;;4.17;3.37;;;24.90;55.30;;;;;;5075657;28;20453;-63
2023/06/24 09:48:34;;;;;;;3.90;3.50;;;24.90;55.10;;;;;;5075691;28;20472;-64
2023/06/24 09:51:02;;;;;;;3.53;3.23;;;24.90;54.90;;;;;;5075333;28;20450;-63
2023/06/24 09:53:31;;;;;;;4.07;3.67;;;25.00;54.90;;;;;;5075848;28;20578;-63
2023/06/24 09:56:01;;;;;;;3.80;3.50;;;25.00;54.50;;;;;;5075503;28;20447;-65
2023/06/24 09:58:31;;;;;;;3.70;3.40;;;25.00;54.60;;;;;;5075306;28;20443;-63
2023/06/24 10:01:02;;;;;;;4.73;3.70;;;25.10;54.60;;;;;;5075583;28;20508;-62
2023/06/24 10:03:29;;;;;;;4.73;3.93;;;25.20;55.20;;;;;;5084547;28;20469;-64
2023/06/24 10:05:58;;;;;;;4.73;3.43;;;25.20;54.40;;;;;;5080228;28;20442;-63
2023/06/24 10:08:25;;;;;;;3.77;3.37;;;25.30;54.10;;;;;;5075392;28;20445;-63
2023/06/24 10:10:52;;;;;;;4.43;4.00;;;25.30;54.20;;;;;;5074900;28;20466;-63
2023/06/24 10:13:21;;;;;;;4.40;3.87;;;25.40;54.20;;;;;;5075758;28;20569;-64
2023/06/24 10:15:48;;;;;;;3.93;3.60;;;25.50;54.20;;;;;;5074912;28;20449;-64
2023/06/24 10:18:34;;;;;;;5.03;2.90;;;25.40;54.10;;;;;;5074748;28;20825;-64
2023/06/24 10:21:01;;;;;;;4.67;4.27;;;25.50;54.40;;;;;;5075683;28;20438;-63
2023/06/24 10:23:31;;;;;;;5.10;4.27;;;25.70;54.20;;;;;;5074727;28;20885;-63
2023/06/24 10:25:58;;;;;;;3.93;3.53;;;25.80;53.90;;;;;;5074720;28;20808;-65
2023/06/24 10:28:28;;;;;;;9.90;4.27;;;25.80;54.10;;;;;;5074628;28;20473;-64
2023/06/24 10:30:58;;;;;;;5.30;4.77;;;25.80;54.50;;;;;;5074745;28;20455;-65
2023/06/24 10:33:25;;;;;;;4.00;3.60;;;25.80;54.50;;;;;;5074347;28;20491;-64
2023/06/24 10:35:52;;;;;;;4.27;3.87;;;25.90;54.50;;;;;;5074733;28;20501;-64
2023/06/24 10:38:19;;;;;;;5.80;4.23;;;25.90;54.00;;;;;;5074410;28;20501;-64
2023/06/24 10:40:46;;;;;;;3.40;3.10;;;25.90;54.00;;;;;;5074660;28;20453;-63
2023/06/24 10:43:30;;;;;;;4.43;4.00;;;26.00;53.90;;;;;;5074668;28;20481;-63
2023/06/24 10:45:59;;;;;;;4.20;3.80;;;26.00;53.90;;;;;;5074666;28;21046;-64
2023/06/24 10:48:26;;;;;;;5.60;3.90;;;26.10;54.10;;;;;;5074429;28;20493;-63
2023/06/24 10:50:53;;;;;;;4.17;3.77;;;26.20;53.80;;;;;;5073649;28;20451;-62
2023/06/24 10:53:20;;;;;;;3.90;3.00;;;26.20;53.80;;;;;;5073872;28;20558;-62
2023/06/24 10:55:47;;;;;;;4.10;3.70;;;26.20;53.60;;;;;;5073782;28;20942;-63
2023/06/24 10:58:15;;;;;;;10.93;4.00;;;26.20;53.60;;;;;;5073907;28;20442;-64
2023/06/24 11:00:47;;;;;;;4.10;3.53;;;26.20;53.60;;;;;;5074415;28;20445;-63
2023/06/24 11:03:15;;;;;;;4.67;3.80;;;26.20;53.20;;;;;;5073837;28;20460;-64
2023/06/24 11:05:42;;;;;;;4.20;3.17;;;26.30;53.00;;;;;;5073463;28;20505;-62
2023/06/24 11:08:10;;;;;;;3.70;3.40;;;26.50;52.90;;;;;;5073740;28;20451;-65
2023/06/24 11:10:44;;;;;;;4.40;3.73;;;26.50;52.70;;;;;;5073315;28;20457;-63
2023/06/24 11:13:11;;;;;;;4.33;3.30;;;26.50;52.50;;;;;;5073252;28;20489;-63
2023/06/24 11:15:39;;;;;;;3.87;3.47;;;26.50;52.30;;;;;;5073997;28;20467;-64
2023/06/24 11:18:09;;;;;;;4.63;4.23;;;26.50;52.30;;;;;;5073038;28;20457;-63
2023/06/24 11:20:37;;;;;;;3.87;3.40;;;26.50;52.20;;;;;;5073360;28;20821;-63
2023/06/24 11:23:07;;;;;;;5.00;4.00;;;26.50;52.60;;;;;;5073448;28;20461;-63
2023/06/24 11:25:40;;;;;;;3.70;3.40;;;26.50;52.70;;;;;;5073900;28;20463;-64
2023/06/24 11:28:13;;;;;;;4.10;3.20;;;26.70;52.70;;;;;;5073672;28;20430;-63
2023/06/24 11:30:40;;;;;;;3.90;3.60;;;26.80;52.40;;;;;;5073670;28;20437;-63
2023/06/24 11:33:08;;;;;;;4.33;4.03;;;26.90;52.30;;;;;;5073348;28;20489;-63
2023/06/24 11:35:37;;;;;;;5.33;3.50;;;27.00;51.30;;;;;;5073085;28;20774;-63
2023/06/24 11:38:04;;;;;;;5.20;4.00;;;27.10;51.20;;;;;;5073439;28;20477;-62
2023/06/24 11:40:32;;;;;;;4.20;3.90;;;27.30;51.00;;;;;;5073235;28;20451;-62
2023/06/24 11:43:02;;;;;;;4.43;4.00;;;27.20;50.90;;;;;;5073884;28;20531;-63
2023/06/24 11:45:28;;;;;;;4.83;3.93;;;27.20;51.10;;;;;;5073323;28;20536;-63
2023/06/24 11:48:04;;;;;;;4.70;4.20;;;27.40;51.30;;;;;;5073214;28;20452;-63
2023/06/24 11:50:32;;;;;;;4.30;3.90;;;27.50;50.80;;;;;;5073091;28;20814;-64
2023/06/24 11:52:59;;;;;;;4.23;3.80;;;27.60;50.60;;;;;;5073350;28;20477;-63
2023/06/24 11:55:27;;;;;;;4.37;3.97;;;27.70;50.10;;;;;;5072971;28;20481;-63
2023/06/24 11:57:56;;;;;;;6.57;4.60;;;27.90;50.20;;;;;;5073320;28;20439;-63
2023/06/24 12:00:23;;;;;;;4.53;4.10;;;28.30;49.50;;;;;;5073276;28;20565;-63
2023/06/24 12:02:52;;;;;;;5.43;4.07;;;28.70;48.30;;;;;;5073274;28;20466;-64
2023/06/24 12:05:28;;;;;;;4.63;3.90;;;29.00;47.50;;;;;;5073285;28;20846;-63
2023/06/24 12:08:01;;;;;;;4.43;4.03;;;29.40;46.80;;;;;;5076289;28;20427;-63
2023/06/24 12:10:28;;;;;;;4.20;3.53;;;29.90;45.70;;;;;;5090377;28;20457;-64
2023/06/24 12:12:56;;;;;;;7.30;4.10;;;30.40;45.10;;;;;;5073899;28;20488;-63
2023/06/24 12:15:23;;;;;;;4.83;4.00;;;30.70;44.10;;;;;;5072916;28;20441;-63
2023/06/24 12:17:50;;;;;;;5.03;4.53;;;31.00;43.60;;;;;;5073153;28;20951;-63
2023/06/24 12:20:17;;;;;;;4.73;4.33;;;31.20;43.20;;;;;;5073309;28;20444;-63
2023/06/24 12:22:45;;;;;;;4.50;4.10;;;31.30;42.90;;;;;;5074073;28;20458;-62
2023/06/24 12:25:13;;;;;;;4.57;4.17;;;30.80;43.10;;;;;;5073751;28;20452;-63
2023/06/24 12:27:40;;;;;;;4.87;4.17;;;30.60;43.70;;;;;;5073752;28;20475;-62
2023/06/24 12:30:09;;;;;;;5.70;5.20;;;30.80;43.40;;;;;;5073744;28;20470;-63
2023/06/24 12:32:35;;;;;;;4.60;4.20;;;31.10;42.90;;;;;;5074847;28;21018;-64
2023/06/24 12:35:03;;;;;;;5.00;4.50;;;31.80;42.20;;;;;;5076796;28;20983;-63
2023/06/24 12:37:31;;;;;;;4.63;4.23;;;32.30;41.30;;;;;;5077837;28;20536;-64
2023/06/24 12:39:58;;;;;;;5.87;4.50;;;32.80;40.70;;;;;;5076568;28;20544;-62
2023/06/24 12:42:26;;;;;;;5.07;4.50;;;32.70;40.30;;;;;;5076840;28;20473;-63
2023/06/24 12:44:53;;;;;;;5.57;4.10;;;32.50;40.70;;;;;;5076814;28;20448;-64
2023/06/24 12:47:20;;;;;;;4.80;4.17;;;32.30;40.80;;;;;;5076835;28;20454;-63
2023/06/24 12:49:46;;;;;;;4.87;4.47;;;32.00;41.30;;;;;;5076549;28;20449;-63
2023/06/24 12:52:14;;;;;;;4.97;4.57;;;31.80;41.70;;;;;;5077032;28;20478;-63